Hauptseite
METAR-TAF:

METAR-TAF

Flughäfen :

El Salvador, El Salvador

Flughafen San Salvador

Breite: 13-26N, Länge: 089-03W, Höhe: 25 m

Beobachtung

Neuester Wetterbericht von vor 47 Minuten, um 00:50 UTC
Wind 12 kt aus Nord/Nordost
Temperatur 28°C
Luftfeuchtigkeit 45%
Luftdruck 1013 hPa
Sichtweite 10 km oder mehr
keine Wolken unter 1500 m und keine Kumulonimbus oder Gewitterwolken

METAR: MSLP 190050Z 02012KT CAVOK 28/15 Q1012 A2990 NOSIG

Zeit: 19:37 (01:37 UTC)

Prognose

Neuester Wetterbericht von vor 4 Stunden und 12 Minuten, um 21:25 UTC
Gültige Prognose vom 19 um 00 UTC bis 19 um 24 UTC
Wind 15 kt aus Nord, Böen bis zu 28 kt
Sichtweite 10 km oder mehr
keine Wolken unter 1500 m und keine Kumulonimbus oder Gewitterwolken

TAF: MSLP 182125Z 1900/1924 01015G28KT CAVOK TX33/1918Z TN22/1912Z

Wetterbeobachtungen und Prognosen von mehr als 4000 Flughäfen (METAR und TAF Bericht).

Die verfügbaren Stationen werden durch gelbe und rote Markierungen auf der Karte dargestellt.

Führen Sie die Maus auf sie, um den Namen der Station zu sehen.

Darauf klicken, um die Beobachtung von Wetterbeobachtungen und Prognosen zu sehen.

Um die Karte zu ändern : klicken Sie auf den grünen Tasten mit einem schwarzen Kreuz Zum Vergrößern, auf den grünen Button mit einem Gedankenstrich zu verkleinern, oder auf die grünen Pfeile für benachbarte Karten.


METAR-TAF: